Airport ICAO


15:03 UTC

11°C

Scattered clouds


An affordable passengers' Moving Map for your aircraft. Made for the iPad and the iPhone
More information here

EGKB Biggin Hill


London UNITED KINGDOM   VFR


METAR EGKB 231450Z 31012KT 290V350 9999 SCT035 11/04 Q1021 0h13min

TAF EGKB 231402Z 2315/2321 32010KT 9999 FEW022 1h01min





NOTAMS

OPEN